sensor_id;sensor_type;location;lat;lon;timestamp;P1;durP1;ratioP1;P2;durP2;ratioP2
10315;SDS011;5203;48.976;8.306;2023-03-31T00:00:43;3.63;;;2.60;;
10315;SDS011;5203;48.976;8.306;2023-03-31T00:03:15;4.97;;;2.70;;
10315;SDS011;5203;48.976;8.306;2023-03-31T00:05:56;5.00;;;2.73;;
10315;SDS011;5203;48.976;8.306;2023-03-31T00:08:24;5.17;;;3.03;;
10315;SDS011;5203;48.976;8.306;2023-03-31T00:10:56;6.17;;;3.17;;
10315;SDS011;5203;48.976;8.306;2023-03-31T00:13:26;5.07;;;2.77;;
10315;SDS011;5203;48.976;8.306;2023-03-31T00:16:00;4.07;;;2.90;;
10315;SDS011;5203;48.976;8.306;2023-03-31T00:18:27;5.30;;;3.03;;
10315;SDS011;5203;48.976;8.306;2023-03-31T00:20:54;4.03;;;2.90;;
10315;SDS011;5203;48.976;8.306;2023-03-31T00:23:23;5.37;;;3.30;;
10315;SDS011;5203;48.976;8.306;2023-03-31T00:25:52;5.00;;;2.80;;
10315;SDS011;5203;48.976;8.306;2023-03-31T00:28:19;5.00;;;2.80;;
10315;SDS011;5203;48.976;8.306;2023-03-31T00:30:44;7.37;;;2.80;;
10315;SDS011;5203;48.976;8.306;2023-03-31T00:33:11;4.10;;;2.70;;
10315;SDS011;5203;48.976;8.306;2023-03-31T00:35:37;6.17;;;3.10;;
10315;SDS011;5203;48.976;8.306;2023-03-31T00:38:04;5.80;;;2.83;;
10315;SDS011;5203;48.976;8.306;2023-03-31T00:40:33;3.53;;;2.70;;
10315;SDS011;5203;48.976;8.306;2023-03-31T00:43:25;3.57;;;2.77;;
10315;SDS011;5203;48.976;8.306;2023-03-31T00:45:55;6.50;;;3.00;;
10315;SDS011;5203;48.976;8.306;2023-03-31T00:48:41;5.57;;;3.00;;
10315;SDS011;5203;48.976;8.306;2023-03-31T00:51:21;4.50;;;3.20;;
10315;SDS011;5203;48.976;8.306;2023-03-31T00:53:50;5.73;;;3.07;;
10315;SDS011;5203;48.976;8.306;2023-03-31T00:56:24;5.03;;;2.83;;
10315;SDS011;5203;48.976;8.306;2023-03-31T00:58:52;7.47;;;3.10;;
10315;SDS011;5203;48.976;8.306;2023-03-31T01:01:23;5.03;;;3.10;;
10315;SDS011;5203;48.976;8.306;2023-03-31T01:03:50;6.23;;;2.50;;
10315;SDS011;5203;48.976;8.306;2023-03-31T01:06:16;5.00;;;2.70;;
10315;SDS011;5203;48.976;8.306;2023-03-31T01:08:47;3.73;;;2.50;;
10315;SDS011;5203;48.976;8.306;2023-03-31T01:11:16;3.97;;;2.17;;
10315;SDS011;5203;48.976;8.306;2023-03-31T01:13:46;6.13;;;2.90;;
10315;SDS011;5203;48.976;8.306;2023-03-31T01:16:15;4.77;;;2.03;;
10315;SDS011;5203;48.976;8.306;2023-03-31T01:18:41;4.13;;;2.20;;
10315;SDS011;5203;48.976;8.306;2023-03-31T01:47:11;7.57;;;2.83;;
10315;SDS011;5203;48.976;8.306;2023-03-31T01:49:36;4.97;;;2.70;;
10315;SDS011;5203;48.976;8.306;2023-03-31T01:54:52;6.20;;;3.13;;
10315;SDS011;5203;48.976;8.306;2023-03-31T02:00:17;5.73;;;3.30;;
10315;SDS011;5203;48.976;8.306;2023-03-31T02:02:53;7.17;;;3.20;;
10315;SDS011;5203;48.976;8.306;2023-03-31T02:05:24;6.70;;;3.47;;
10315;SDS011;5203;48.976;8.306;2023-03-31T02:07:55;5.47;;;3.07;;
10315;SDS011;5203;48.976;8.306;2023-03-31T02:10:26;6.50;;;3.43;;
10315;SDS011;5203;48.976;8.306;2023-03-31T02:12:55;7.17;;;3.10;;
10315;SDS011;5203;48.976;8.306;2023-03-31T02:15:25;7.67;;;3.10;;
10315;SDS011;5203;48.976;8.306;2023-03-31T02:17:55;7.53;;;3.80;;
10315;SDS011;5203;48.976;8.306;2023-03-31T02:20:23;8.67;;;3.60;;
10315;SDS011;5203;48.976;8.306;2023-03-31T02:22:52;6.57;;;3.97;;
10315;SDS011;5203;48.976;8.306;2023-03-31T02:25:21;7.50;;;3.37;;
10315;SDS011;5203;48.976;8.306;2023-03-31T02:27:53;6.43;;;3.57;;
10315;SDS011;5203;48.976;8.306;2023-03-31T02:30:25;6.67;;;3.27;;
10315;SDS011;5203;48.976;8.306;2023-03-31T02:32:56;5.27;;;3.53;;
10315;SDS011;5203;48.976;8.306;2023-03-31T02:35:23;7.50;;;3.60;;
10315;SDS011;5203;48.976;8.306;2023-03-31T02:37:49;5.87;;;3.50;;
10315;SDS011;5203;48.976;8.306;2023-03-31T02:40:19;5.50;;;3.60;;
10315;SDS011;5203;48.976;8.306;2023-03-31T02:42:46;5.50;;;3.30;;
10315;SDS011;5203;48.976;8.306;2023-03-31T02:48:09;5.50;;;3.63;;
10315;SDS011;5203;48.976;8.306;2023-03-31T02:53:41;4.43;;;3.60;;
10315;SDS011;5203;48.976;8.306;2023-03-31T03:02:42;7.30;;;3.73;;
10315;SDS011;5203;48.976;8.306;2023-03-31T03:05:18;4.17;;;3.37;;
10315;SDS011;5203;48.976;8.306;2023-03-31T03:13:08;5.63;;;4.17;;
10315;SDS011;5203;48.976;8.306;2023-03-31T03:15:47;5.30;;;3.90;;
10315;SDS011;5203;48.976;8.306;2023-03-31T03:18:19;5.97;;;3.53;;
10315;SDS011;5203;48.976;8.306;2023-03-31T03:20:45;5.43;;;3.40;;
10315;SDS011;5203;48.976;8.306;2023-03-31T03:23:15;8.07;;;3.63;;
10315;SDS011;5203;48.976;8.306;2023-03-31T03:25:42;7.63;;;3.73;;
10315;SDS011;5203;48.976;8.306;2023-03-31T03:28:08;5.20;;;3.50;;
10315;SDS011;5203;48.976;8.306;2023-03-31T03:30:35;7.97;;;3.73;;
10315;SDS011;5203;48.976;8.306;2023-03-31T03:33:00;5.57;;;3.63;;
10315;SDS011;5203;48.976;8.306;2023-03-31T03:35:27;5.93;;;3.63;;
10315;SDS011;5203;48.976;8.306;2023-03-31T03:37:53;6.67;;;3.93;;
10315;SDS011;5203;48.976;8.306;2023-03-31T03:40:18;5.53;;;3.70;;
10315;SDS011;5203;48.976;8.306;2023-03-31T03:42:44;10.30;;;4.97;;
10315;SDS011;5203;48.976;8.306;2023-03-31T03:45:10;7.63;;;5.00;;
10315;SDS011;5203;48.976;8.306;2023-03-31T03:47:35;7.30;;;4.90;;
10315;SDS011;5203;48.976;8.306;2023-03-31T03:50:02;5.57;;;4.00;;
10315;SDS011;5203;48.976;8.306;2023-03-31T03:52:28;4.27;;;3.83;;
10315;SDS011;5203;48.976;8.306;2023-03-31T03:54:54;5.33;;;3.53;;
10315;SDS011;5203;48.976;8.306;2023-03-31T03:57:19;5.77;;;3.67;;
10315;SDS011;5203;48.976;8.306;2023-03-31T03:59:46;4.57;;;3.70;;
10315;SDS011;5203;48.976;8.306;2023-03-31T04:02:11;5.53;;;3.50;;
10315;SDS011;5203;48.976;8.306;2023-03-31T04:04:37;4.33;;;3.77;;
10315;SDS011;5203;48.976;8.306;2023-03-31T04:07:03;4.30;;;3.70;;
10315;SDS011;5203;48.976;8.306;2023-03-31T04:09:29;4.27;;;3.43;;
10315;SDS011;5203;48.976;8.306;2023-03-31T04:11:54;5.00;;;3.73;;
10315;SDS011;5203;48.976;8.306;2023-03-31T04:14:20;5.73;;;3.60;;
10315;SDS011;5203;48.976;8.306;2023-03-31T04:16:46;11.77;;;7.60;;
10315;SDS011;5203;48.976;8.306;2023-03-31T04:19:12;30.43;;;26.23;;
10315;SDS011;5203;48.976;8.306;2023-03-31T04:21:41;10.47;;;9.13;;
10315;SDS011;5203;48.976;8.306;2023-03-31T04:24:09;12.23;;;8.83;;
10315;SDS011;5203;48.976;8.306;2023-03-31T04:26:45;13.83;;;8.73;;
10315;SDS011;5203;48.976;8.306;2023-03-31T04:29:14;8.53;;;4.60;;
10315;SDS011;5203;48.976;8.306;2023-03-31T04:31:40;5.93;;;4.77;;
10315;SDS011;5203;48.976;8.306;2023-03-31T04:34:11;7.47;;;4.30;;
10315;SDS011;5203;48.976;8.306;2023-03-31T04:36:38;5.53;;;4.07;;
10315;SDS011;5203;48.976;8.306;2023-03-31T04:39:07;8.03;;;4.37;;
10315;SDS011;5203;48.976;8.306;2023-03-31T04:41:36;8.13;;;4.20;;
10315;SDS011;5203;48.976;8.306;2023-03-31T04:44:01;6.93;;;4.27;;
10315;SDS011;5203;48.976;8.306;2023-03-31T04:46:27;8.77;;;4.00;;
10315;SDS011;5203;48.976;8.306;2023-03-31T04:48:53;4.73;;;3.73;;
10315;SDS011;5203;48.976;8.306;2023-03-31T04:51:18;7.37;;;3.93;;
10315;SDS011;5203;48.976;8.306;2023-03-31T04:53:50;5.50;;;4.97;;
10315;SDS011;5203;48.976;8.306;2023-03-31T04:56:16;7.87;;;4.33;;
10315;SDS011;5203;48.976;8.306;2023-03-31T04:58:42;6.60;;;4.17;;
10315;SDS011;5203;48.976;8.306;2023-03-31T05:01:08;5.17;;;4.23;;
10315;SDS011;5203;48.976;8.306;2023-03-31T05:03:37;6.33;;;4.40;;
10315;SDS011;5203;48.976;8.306;2023-03-31T05:06:03;6.23;;;4.60;;
10315;SDS011;5203;48.976;8.306;2023-03-31T05:08:29;8.17;;;4.57;;
10315;SDS011;5203;48.976;8.306;2023-03-31T05:10:55;6.33;;;4.50;;
10315;SDS011;5203;48.976;8.306;2023-03-31T05:13:21;6.07;;;4.93;;
10315;SDS011;5203;48.976;8.306;2023-03-31T05:15:47;7.17;;;4.70;;
10315;SDS011;5203;48.976;8.306;2023-03-31T05:18:15;8.27;;;4.87;;
10315;SDS011;5203;48.976;8.306;2023-03-31T05:20:41;6.90;;;5.50;;
10315;SDS011;5203;48.976;8.306;2023-03-31T05:23:07;8.10;;;6.03;;
10315;SDS011;5203;48.976;8.306;2023-03-31T05:25:33;8.17;;;5.50;;
10315;SDS011;5203;48.976;8.306;2023-03-31T05:27:58;8.57;;;7.77;;
10315;SDS011;5203;48.976;8.306;2023-03-31T05:30:28;6.70;;;4.83;;
10315;SDS011;5203;48.976;8.306;2023-03-31T05:32:54;6.37;;;4.97;;
10315;SDS011;5203;48.976;8.306;2023-03-31T05:35:20;7.57;;;4.23;;
10315;SDS011;5203;48.976;8.306;2023-03-31T05:37:46;8.47;;;4.77;;
10315;SDS011;5203;48.976;8.306;2023-03-31T05:40:12;8.47;;;5.13;;
10315;SDS011;5203;48.976;8.306;2023-03-31T05:42:37;8.60;;;5.40;;
10315;SDS011;5203;48.976;8.306;2023-03-31T05:45:03;8.67;;;4.57;;
10315;SDS011;5203;48.976;8.306;2023-03-31T05:47:29;5.90;;;4.43;;
10315;SDS011;5203;48.976;8.306;2023-03-31T05:49:56;7.63;;;4.53;;
10315;SDS011;5203;48.976;8.306;2023-03-31T05:52:22;7.07;;;4.30;;
10315;SDS011;5203;48.976;8.306;2023-03-31T05:54:47;6.93;;;5.10;;
10315;SDS011;5203;48.976;8.306;2023-03-31T05:57:13;7.17;;;5.13;;
10315;SDS011;5203;48.976;8.306;2023-03-31T05:59:39;5.93;;;4.77;;
10315;SDS011;5203;48.976;8.306;2023-03-31T06:02:06;6.60;;;5.40;;
10315;SDS011;5203;48.976;8.306;2023-03-31T06:04:32;6.50;;;4.90;;
10315;SDS011;5203;48.976;8.306;2023-03-31T06:06:57;7.57;;;5.10;;
10315;SDS011;5203;48.976;8.306;2023-03-31T06:09:24;8.50;;;5.10;;
10315;SDS011;5203;48.976;8.306;2023-03-31T06:11:50;7.20;;;5.43;;
10315;SDS011;5203;48.976;8.306;2023-03-31T06:14:16;11.70;;;5.70;;
10315;SDS011;5203;48.976;8.306;2023-03-31T06:16:42;9.90;;;6.47;;
10315;SDS011;5203;48.976;8.306;2023-03-31T06:19:08;7.57;;;5.43;;
10315;SDS011;5203;48.976;8.306;2023-03-31T06:21:34;8.87;;;5.50;;
10315;SDS011;5203;48.976;8.306;2023-03-31T06:24:00;7.43;;;6.30;;
10315;SDS011;5203;48.976;8.306;2023-03-31T06:26:26;8.20;;;5.83;;
10315;SDS011;5203;48.976;8.306;2023-03-31T06:28:52;8.47;;;6.47;;
10315;SDS011;5203;48.976;8.306;2023-03-31T06:31:19;10.13;;;6.30;;
10315;SDS011;5203;48.976;8.306;2023-03-31T06:33:47;9.30;;;6.10;;
10315;SDS011;5203;48.976;8.306;2023-03-31T06:36:14;11.40;;;6.40;;
10315;SDS011;5203;48.976;8.306;2023-03-31T06:38:41;12.93;;;7.30;;
10315;SDS011;5203;48.976;8.306;2023-03-31T06:41:08;9.23;;;6.37;;
10315;SDS011;5203;48.976;8.306;2023-03-31T06:43:36;10.77;;;7.03;;
10315;SDS011;5203;48.976;8.306;2023-03-31T06:46:02;11.43;;;6.93;;
10315;SDS011;5203;48.976;8.306;2023-03-31T06:48:28;11.77;;;7.23;;
10315;SDS011;5203;48.976;8.306;2023-03-31T06:50:55;9.30;;;6.83;;
10315;SDS011;5203;48.976;8.306;2023-03-31T06:53:23;12.13;;;6.57;;
10315;SDS011;5203;48.976;8.306;2023-03-31T06:55:49;17.00;;;6.47;;
10315;SDS011;5203;48.976;8.306;2023-03-31T06:58:15;11.10;;;6.90;;
10315;SDS011;5203;48.976;8.306;2023-03-31T07:00:41;9.30;;;6.40;;
10315;SDS011;5203;48.976;8.306;2023-03-31T07:03:09;9.67;;;6.27;;
10315;SDS011;5203;48.976;8.306;2023-03-31T07:05:34;7.63;;;5.90;;
10315;SDS011;5203;48.976;8.306;2023-03-31T07:08:00;8.17;;;6.03;;
10315;SDS011;5203;48.976;8.306;2023-03-31T07:10:27;5.67;;;4.93;;
10315;SDS011;5203;48.976;8.306;2023-03-31T07:12:54;5.53;;;5.03;;
10315;SDS011;5203;48.976;8.306;2023-03-31T07:15:21;6.60;;;4.53;;
10315;SDS011;5203;48.976;8.306;2023-03-31T07:17:47;6.30;;;4.23;;
10315;SDS011;5203;48.976;8.306;2023-03-31T07:20:15;4.50;;;4.00;;
10315;SDS011;5203;48.976;8.306;2023-03-31T07:22:42;4.00;;;3.60;;
10315;SDS011;5203;48.976;8.306;2023-03-31T07:25:09;7.93;;;4.13;;
10315;SDS011;5203;48.976;8.306;2023-03-31T07:27:37;5.87;;;3.83;;
10315;SDS011;5203;48.976;8.306;2023-03-31T07:30:06;3.53;;;3.00;;
10315;SDS011;5203;48.976;8.306;2023-03-31T07:32:33;3.73;;;3.20;;
10315;SDS011;5203;48.976;8.306;2023-03-31T07:35:03;4.10;;;3.07;;
10315;SDS011;5203;48.976;8.306;2023-03-31T07:37:33;5.70;;;4.17;;
10315;SDS011;5203;48.976;8.306;2023-03-31T07:40:03;5.70;;;2.90;;
10315;SDS011;5203;48.976;8.306;2023-03-31T07:42:30;3.73;;;2.83;;
10315;SDS011;5203;48.976;8.306;2023-03-31T07:44:57;4.80;;;3.00;;
10315;SDS011;5203;48.976;8.306;2023-03-31T07:47:22;3.67;;;2.73;;
10315;SDS011;5203;48.976;8.306;2023-03-31T07:49:49;3.30;;;2.80;;
10315;SDS011;5203;48.976;8.306;2023-03-31T07:52:14;5.53;;;3.00;;
10315;SDS011;5203;48.976;8.306;2023-03-31T07:54:41;3.43;;;2.90;;
10315;SDS011;5203;48.976;8.306;2023-03-31T07:57:06;4.43;;;2.73;;
10315;SDS011;5203;48.976;8.306;2023-03-31T07:59:33;3.87;;;2.73;;
10315;SDS011;5203;48.976;8.306;2023-03-31T08:01:58;3.30;;;2.40;;
10315;SDS011;5203;48.976;8.306;2023-03-31T08:04:24;4.60;;;2.60;;
10315;SDS011;5203;48.976;8.306;2023-03-31T08:06:50;3.80;;;2.63;;
10315;SDS011;5203;48.976;8.306;2023-03-31T08:09:16;3.77;;;2.57;;
10315;SDS011;5203;48.976;8.306;2023-03-31T08:11:42;3.07;;;2.30;;
10315;SDS011;5203;48.976;8.306;2023-03-31T08:14:08;4.13;;;2.67;;
10315;SDS011;5203;48.976;8.306;2023-03-31T08:16:34;2.70;;;2.50;;
10315;SDS011;5203;48.976;8.306;2023-03-31T08:19:00;2.90;;;2.70;;
10315;SDS011;5203;48.976;8.306;2023-03-31T08:21:27;4.00;;;2.50;;
10315;SDS011;5203;48.976;8.306;2023-03-31T08:23:53;3.93;;;2.60;;
10315;SDS011;5203;48.976;8.306;2023-03-31T08:26:20;3.53;;;2.40;;
10315;SDS011;5203;48.976;8.306;2023-03-31T08:28:48;3.97;;;2.57;;
10315;SDS011;5203;48.976;8.306;2023-03-31T08:31:14;4.10;;;2.50;;
10315;SDS011;5203;48.976;8.306;2023-03-31T08:33:41;2.83;;;2.50;;
10315;SDS011;5203;48.976;8.306;2023-03-31T08:36:07;5.00;;;2.77;;
10315;SDS011;5203;48.976;8.306;2023-03-31T08:38:38;4.10;;;3.03;;
10315;SDS011;5203;48.976;8.306;2023-03-31T08:41:06;3.90;;;2.83;;
10315;SDS011;5203;48.976;8.306;2023-03-31T08:43:42;3.43;;;2.67;;
10315;SDS011;5203;48.976;8.306;2023-03-31T08:46:10;3.70;;;2.67;;
10315;SDS011;5203;48.976;8.306;2023-03-31T08:48:47;4.17;;;2.60;;
10315;SDS011;5203;48.976;8.306;2023-03-31T08:51:24;5.57;;;2.80;;
10315;SDS011;5203;48.976;8.306;2023-03-31T08:54:04;5.47;;;3.00;;
10315;SDS011;5203;48.976;8.306;2023-03-31T08:56:41;3.80;;;2.83;;
10315;SDS011;5203;48.976;8.306;2023-03-31T08:59:19;7.27;;;2.90;;
10315;SDS011;5203;48.976;8.306;2023-03-31T09:01:48;4.07;;;2.30;;
10315;SDS011;5203;48.976;8.306;2023-03-31T09:07:02;3.17;;;2.13;;
10315;SDS011;5203;48.976;8.306;2023-03-31T09:15:17;4.17;;;2.97;;
10315;SDS011;5203;48.976;8.306;2023-03-31T09:17:48;3.73;;;2.83;;
10315;SDS011;5203;48.976;8.306;2023-03-31T09:20:23;3.60;;;2.53;;
10315;SDS011;5203;48.976;8.306;2023-03-31T09:22:57;3.97;;;3.10;;
10315;SDS011;5203;48.976;8.306;2023-03-31T09:25:38;4.70;;;2.60;;
10315;SDS011;5203;48.976;8.306;2023-03-31T09:28:08;9.30;;;3.07;;
10315;SDS011;5203;48.976;8.306;2023-03-31T09:30:42;4.23;;;2.50;;
10315;SDS011;5203;48.976;8.306;2023-03-31T09:35:35;5.27;;;2.83;;
10315;SDS011;5203;48.976;8.306;2023-03-31T09:38:00;8.10;;;3.03;;
10315;SDS011;5203;48.976;8.306;2023-03-31T09:40:26;5.80;;;2.90;;
10315;SDS011;5203;48.976;8.306;2023-03-31T09:42:55;5.70;;;3.27;;
10315;SDS011;5203;48.976;8.306;2023-03-31T09:45:28;7.77;;;3.07;;
10315;SDS011;5203;48.976;8.306;2023-03-31T09:48:00;4.83;;;2.87;;
10315;SDS011;5203;48.976;8.306;2023-03-31T09:50:30;5.70;;;3.20;;
10315;SDS011;5203;48.976;8.306;2023-03-31T09:53:04;5.30;;;2.90;;
10315;SDS011;5203;48.976;8.306;2023-03-31T09:55:44;6.00;;;3.53;;
10315;SDS011;5203;48.976;8.306;2023-03-31T09:58:14;5.50;;;3.30;;
10315;SDS011;5203;48.976;8.306;2023-03-31T10:00:41;5.40;;;3.20;;
10315;SDS011;5203;48.976;8.306;2023-03-31T10:03:20;7.83;;;3.77;;
10315;SDS011;5203;48.976;8.306;2023-03-31T10:05:50;8.57;;;3.07;;
10315;SDS011;5203;48.976;8.306;2023-03-31T10:08:33;10.33;;;3.10;;
10315;SDS011;5203;48.976;8.306;2023-03-31T10:13:34;9.77;;;3.10;;
10315;SDS011;5203;48.976;8.306;2023-03-31T10:21:44;9.03;;;3.17;;
10315;SDS011;5203;48.976;8.306;2023-03-31T10:24:16;6.10;;;3.00;;
10315;SDS011;5203;48.976;8.306;2023-03-31T10:26:45;7.30;;;3.47;;
10315;SDS011;5203;48.976;8.306;2023-03-31T10:29:14;6.40;;;3.20;;
10315;SDS011;5203;48.976;8.306;2023-03-31T10:31:45;7.43;;;2.90;;
10315;SDS011;5203;48.976;8.306;2023-03-31T10:34:13;8.57;;;3.27;;
10315;SDS011;5203;48.976;8.306;2023-03-31T10:36:45;6.97;;;3.17;;
10315;SDS011;5203;48.976;8.306;2023-03-31T10:39:14;8.13;;;3.47;;
10315;SDS011;5203;48.976;8.306;2023-03-31T10:41:41;5.40;;;3.17;;
10315;SDS011;5203;48.976;8.306;2023-03-31T10:44:28;8.53;;;3.83;;
10315;SDS011;5203;48.976;8.306;2023-03-31T10:49:44;3.07;;;2.10;;
10315;SDS011;5203;48.976;8.306;2023-03-31T10:52:17;5.10;;;2.07;;
10315;SDS011;5203;48.976;8.306;2023-03-31T10:54:45;3.90;;;1.80;;
10315;SDS011;5203;48.976;8.306;2023-03-31T10:57:12;3.90;;;1.83;;
10315;SDS011;5203;48.976;8.306;2023-03-31T11:11:10;1.97;;;1.53;;
10315;SDS011;5203;48.976;8.306;2023-03-31T11:14:27;2.07;;;1.60;;
10315;SDS011;5203;48.976;8.306;2023-03-31T11:19:51;1.93;;;1.60;;
10315;SDS011;5203;48.976;8.306;2023-03-31T11:22:33;2.30;;;1.80;;
10315;SDS011;5203;48.976;8.306;2023-03-31T11:28:09;2.30;;;1.43;;
10315;SDS011;5203;48.976;8.306;2023-03-31T11:33:21;1.97;;;1.60;;
10315;SDS011;5203;48.976;8.306;2023-03-31T11:43:52;3.37;;;1.60;;
10315;SDS011;5203;48.976;8.306;2023-03-31T11:46:34;3.13;;;1.60;;
10315;SDS011;5203;48.976;8.306;2023-03-31T11:49:21;1.90;;;1.57;;
10315;SDS011;5203;48.976;8.306;2023-03-31T11:51:56;2.90;;;1.57;;
10315;SDS011;5203;48.976;8.306;2023-03-31T11:57:31;1.50;;;1.30;;
10315;SDS011;5203;48.976;8.306;2023-03-31T12:00:46;2.23;;;1.77;;
10315;SDS011;5203;48.976;8.306;2023-03-31T12:03:08;1.70;;;1.60;;
10315;SDS011;5203;48.976;8.306;2023-03-31T12:05:48;2.53;;;1.80;;
10315;SDS011;5203;48.976;8.306;2023-03-31T12:10:48;3.00;;;1.70;;
10315;SDS011;5203;48.976;8.306;2023-03-31T12:16:10;3.70;;;1.90;;
10315;SDS011;5203;48.976;8.306;2023-03-31T12:21:54;2.97;;;1.70;;
10315;SDS011;5203;48.976;8.306;2023-03-31T12:24:26;2.10;;;1.70;;
10315;SDS011;5203;48.976;8.306;2023-03-31T12:29:56;3.67;;;1.67;;
10315;SDS011;5203;48.976;8.306;2023-03-31T12:32:44;1.87;;;1.77;;
10315;SDS011;5203;48.976;8.306;2023-03-31T12:38:40;3.23;;;2.10;;
10315;SDS011;5203;48.976;8.306;2023-03-31T12:47:25;2.53;;;2.07;;
10315;SDS011;5203;48.976;8.306;2023-03-31T12:50:10;2.87;;;1.93;;
10315;SDS011;5203;48.976;8.306;2023-03-31T12:57:34;1.97;;;1.77;;
10315;SDS011;5203;48.976;8.306;2023-03-31T13:02:38;5.30;;;2.10;;
10315;SDS011;5203;48.976;8.306;2023-03-31T13:08:05;3.60;;;2.10;;
10315;SDS011;5203;48.976;8.306;2023-03-31T13:10:32;2.40;;;1.70;;
10315;SDS011;5203;48.976;8.306;2023-03-31T13:13:17;2.90;;;2.00;;
10315;SDS011;5203;48.976;8.306;2023-03-31T13:15:51;3.47;;;2.10;;
10315;SDS011;5203;48.976;8.306;2023-03-31T13:18:22;2.60;;;2.00;;
10315;SDS011;5203;48.976;8.306;2023-03-31T13:20:58;3.50;;;1.90;;
10315;SDS011;5203;48.976;8.306;2023-03-31T13:23:25;3.73;;;2.40;;
10315;SDS011;5203;48.976;8.306;2023-03-31T13:25:57;2.33;;;1.87;;
10315;SDS011;5203;48.976;8.306;2023-03-31T13:28:39;3.60;;;2.07;;
10315;SDS011;5203;48.976;8.306;2023-03-31T13:31:09;5.23;;;2.27;;
10315;SDS011;5203;48.976;8.306;2023-03-31T13:47:09;2.10;;;1.80;;
10315;SDS011;5203;48.976;8.306;2023-03-31T13:58:48;1.93;;;1.63;;
10315;SDS011;5203;48.976;8.306;2023-03-31T14:07:19;2.40;;;1.90;;
10315;SDS011;5203;48.976;8.306;2023-03-31T14:09:51;3.03;;;1.90;;
10315;SDS011;5203;48.976;8.306;2023-03-31T14:14:56;2.80;;;2.10;;
10315;SDS011;5203;48.976;8.306;2023-03-31T14:17:23;2.17;;;1.77;;
10315;SDS011;5203;48.976;8.306;2023-03-31T14:23:44;4.73;;;1.90;;
10315;SDS011;5203;48.976;8.306;2023-03-31T14:29:57;4.03;;;1.90;;
10315;SDS011;5203;48.976;8.306;2023-03-31T14:37:37;1.73;;;1.60;;
10315;SDS011;5203;48.976;8.306;2023-03-31T14:40:04;3.30;;;1.97;;
10315;SDS011;5203;48.976;8.306;2023-03-31T14:42:36;1.40;;;1.30;;
10315;SDS011;5203;48.976;8.306;2023-03-31T14:45:05;3.23;;;1.83;;
10315;SDS011;5203;48.976;8.306;2023-03-31T14:47:39;3.23;;;2.00;;
10315;SDS011;5203;48.976;8.306;2023-03-31T14:52:39;3.30;;;1.87;;
10315;SDS011;5203;48.976;8.306;2023-03-31T14:55:14;3.40;;;1.80;;
10315;SDS011;5203;48.976;8.306;2023-03-31T14:57:41;2.10;;;1.60;;
10315;SDS011;5203;48.976;8.306;2023-03-31T15:00:19;3.10;;;1.60;;
10315;SDS011;5203;48.976;8.306;2023-03-31T15:02:51;2.23;;;1.70;;
10315;SDS011;5203;48.976;8.306;2023-03-31T15:05:49;3.63;;;2.10;;
10315;SDS011;5203;48.976;8.306;2023-03-31T15:08:13;2.90;;;1.80;;
10315;SDS011;5203;48.976;8.306;2023-03-31T15:10:48;2.37;;;1.90;;
10315;SDS011;5203;48.976;8.306;2023-03-31T15:13:43;4.43;;;2.00;;
10315;SDS011;5203;48.976;8.306;2023-03-31T15:18:55;5.60;;;2.10;;
10315;SDS011;5203;48.976;8.306;2023-03-31T15:21:23;1.83;;;1.67;;
10315;SDS011;5203;48.976;8.306;2023-03-31T15:23:51;2.20;;;1.90;;
10315;SDS011;5203;48.976;8.306;2023-03-31T15:26:19;4.43;;;2.10;;
10315;SDS011;5203;48.976;8.306;2023-03-31T15:28:54;4.07;;;1.90;;
10315;SDS011;5203;48.976;8.306;2023-03-31T15:31:22;4.53;;;2.63;;
10315;SDS011;5203;48.976;8.306;2023-03-31T15:33:51;5.90;;;2.20;;
10315;SDS011;5203;48.976;8.306;2023-03-31T15:36:16;3.23;;;1.90;;
10315;SDS011;5203;48.976;8.306;2023-03-31T15:38:45;4.00;;;2.30;;
10315;SDS011;5203;48.976;8.306;2023-03-31T15:41:15;3.60;;;2.43;;
10315;SDS011;5203;48.976;8.306;2023-03-31T15:46:17;3.23;;;2.00;;
10315;SDS011;5203;48.976;8.306;2023-03-31T15:49:19;5.07;;;2.10;;
10315;SDS011;5203;48.976;8.306;2023-03-31T15:51:47;3.57;;;2.03;;
10315;SDS011;5203;48.976;8.306;2023-03-31T15:54:34;1.77;;;1.67;;
10315;SDS011;5203;48.976;8.306;2023-03-31T15:57:04;2.90;;;1.60;;
10315;SDS011;5203;48.976;8.306;2023-03-31T15:59:42;2.23;;;1.97;;
10315;SDS011;5203;48.976;8.306;2023-03-31T16:02:28;2.80;;;1.77;;
10315;SDS011;5203;48.976;8.306;2023-03-31T16:05:04;1.87;;;1.67;;
10315;SDS011;5203;48.976;8.306;2023-03-31T16:07:32;2.30;;;1.60;;
10315;SDS011;5203;48.976;8.306;2023-03-31T16:17:32;2.73;;;1.50;;
10315;SDS011;5203;48.976;8.306;2023-03-31T16:20:02;1.13;;;1.13;;
10315;SDS011;5203;48.976;8.306;2023-03-31T16:22:36;2.47;;;1.33;;
10315;SDS011;5203;48.976;8.306;2023-03-31T16:25:09;1.60;;;1.47;;
10315;SDS011;5203;48.976;8.306;2023-03-31T16:27:40;2.40;;;1.93;;
10315;SDS011;5203;48.976;8.306;2023-03-31T16:30:10;1.63;;;1.53;;
10315;SDS011;5203;48.976;8.306;2023-03-31T16:32:38;2.40;;;1.53;;
10315;SDS011;5203;48.976;8.306;2023-03-31T16:35:23;1.60;;;1.40;;
10315;SDS011;5203;48.976;8.306;2023-03-31T16:37:52;1.60;;;1.50;;
10315;SDS011;5203;48.976;8.306;2023-03-31T16:40:18;2.00;;;1.80;;
10315;SDS011;5203;48.976;8.306;2023-03-31T16:42:44;1.70;;;1.50;;
10315;SDS011;5203;48.976;8.306;2023-03-31T16:45:10;1.90;;;1.40;;
10315;SDS011;5203;48.976;8.306;2023-03-31T16:47:37;3.67;;;1.80;;
10315;SDS011;5203;48.976;8.306;2023-03-31T16:50:03;1.53;;;1.43;;
10315;SDS011;5203;48.976;8.306;2023-03-31T16:52:31;2.90;;;1.70;;
10315;SDS011;5203;48.976;8.306;2023-03-31T16:54:57;2.00;;;1.33;;
10315;SDS011;5203;48.976;8.306;2023-03-31T16:57:22;3.37;;;1.60;;
10315;SDS011;5203;48.976;8.306;2023-03-31T16:59:48;3.50;;;1.47;;
10315;SDS011;5203;48.976;8.306;2023-03-31T17:02:14;2.70;;;1.60;;
10315;SDS011;5203;48.976;8.306;2023-03-31T17:04:39;1.80;;;1.70;;
10315;SDS011;5203;48.976;8.306;2023-03-31T17:07:05;3.20;;;2.07;;
10315;SDS011;5203;48.976;8.306;2023-03-31T17:09:31;3.40;;;1.67;;
10315;SDS011;5203;48.976;8.306;2023-03-31T17:11:56;1.63;;;1.40;;
10315;SDS011;5203;48.976;8.306;2023-03-31T17:14:22;2.17;;;1.47;;
10315;SDS011;5203;48.976;8.306;2023-03-31T17:16:48;2.67;;;1.50;;
10315;SDS011;5203;48.976;8.306;2023-03-31T17:19:14;2.03;;;1.50;;
10315;SDS011;5203;48.976;8.306;2023-03-31T17:21:41;1.87;;;1.77;;
10315;SDS011;5203;48.976;8.306;2023-03-31T17:24:07;3.47;;;1.57;;
10315;SDS011;5203;48.976;8.306;2023-03-31T17:26:33;1.90;;;1.77;;
10315;SDS011;5203;48.976;8.306;2023-03-31T17:29:01;2.37;;;1.73;;
10315;SDS011;5203;48.976;8.306;2023-03-31T17:31:27;3.37;;;1.90;;
10315;SDS011;5203;48.976;8.306;2023-03-31T17:33:55;1.83;;;1.73;;
10315;SDS011;5203;48.976;8.306;2023-03-31T17:36:21;2.73;;;1.80;;
10315;SDS011;5203;48.976;8.306;2023-03-31T17:38:47;1.60;;;1.50;;
10315;SDS011;5203;48.976;8.306;2023-03-31T17:41:13;2.93;;;1.70;;
10315;SDS011;5203;48.976;8.306;2023-03-31T17:43:39;2.67;;;2.10;;
10315;SDS011;5203;48.976;8.306;2023-03-31T17:46:09;2.00;;;1.80;;
10315;SDS011;5203;48.976;8.306;2023-03-31T17:48:34;4.90;;;2.33;;
10315;SDS011;5203;48.976;8.306;2023-03-31T17:51:09;3.70;;;2.37;;
10315;SDS011;5203;48.976;8.306;2023-03-31T17:53:38;3.30;;;2.30;;
10315;SDS011;5203;48.976;8.306;2023-03-31T17:56:05;4.30;;;2.40;;
10315;SDS011;5203;48.976;8.306;2023-03-31T17:58:31;3.90;;;2.13;;
10315;SDS011;5203;48.976;8.306;2023-03-31T18:00:57;3.50;;;2.50;;
10315;SDS011;5203;48.976;8.306;2023-03-31T18:03:23;2.60;;;2.40;;
10315;SDS011;5203;48.976;8.306;2023-03-31T18:05:52;4.67;;;2.40;;
10315;SDS011;5203;48.976;8.306;2023-03-31T18:08:17;2.93;;;2.37;;
10315;SDS011;5203;48.976;8.306;2023-03-31T18:10:43;2.40;;;2.13;;
10315;SDS011;5203;48.976;8.306;2023-03-31T18:13:09;4.20;;;2.50;;
10315;SDS011;5203;48.976;8.306;2023-03-31T18:15:36;4.23;;;2.53;;
10315;SDS011;5203;48.976;8.306;2023-03-31T18:18:03;5.50;;;2.40;;
10315;SDS011;5203;48.976;8.306;2023-03-31T18:20:29;3.47;;;2.17;;
10315;SDS011;5203;48.976;8.306;2023-03-31T18:22:56;5.20;;;2.63;;
10315;SDS011;5203;48.976;8.306;2023-03-31T18:25:22;3.43;;;2.30;;
10315;SDS011;5203;48.976;8.306;2023-03-31T18:27:47;4.17;;;2.27;;